Time;durP1;ratioP1;P1;durP2;ratioP2;P2;SDS_P1;SDS_P2;PMS_P1;PMS_P2;Temp;Humidity;BMP_temperature;BMP_pressure;BME280_temperature;BME280_humidity;BME280_pressure;Samples;Min_cycle;Max_cycle;Signal;HPM_P1;HPM_P2
2023/12/04 00:00:48;;;;;;;173.87;58.27;;;;;;;;;;4975890;28;20421;-43
2023/12/04 00:03:14;;;;;;;150.35;52.50;;;;;;;;;;4976058;28;20753;-43
2023/12/04 00:05:43;;;;;;;142.13;49.72;;;;;;;;;;4959140;28;20206;-43
2023/12/04 00:08:10;;;;;;;191.82;58.70;;;;;;;;;;4969331;28;20288;-43
2023/12/04 00:10:36;;;;;;;189.32;57.03;;;;;;;;;;4966414;28;20166;-42
2023/12/04 00:13:02;;;;;;;189.83;58.27;;;;;;;;;;4961452;28;20236;-43
2023/12/04 00:15:28;;;;;;;186.77;56.13;;;;;;;;;;4975125;28;20417;-42
2023/12/04 00:17:54;;;;;;;191.60;59.80;;;;;;;;;;4975460;28;20417;-43
2023/12/04 00:20:19;;;;;;;181.27;55.77;;;;;;;;;;4958596;28;20433;-43
2023/12/04 00:22:46;;;;;;;181.03;55.77;;;;;;;;;;4965678;28;20463;-43
2023/12/04 00:25:11;;;;;;;188.00;56.70;;;;;;;;;;4975399;28;20463;-43
2023/12/04 00:27:37;;;;;;;189.13;57.60;;;;;;;;;;4974986;28;20201;-43
2023/12/04 00:30:04;;;;;;;143.88;52.17;;;;;;;;;;4974374;28;20448;-43
2023/12/04 00:32:30;;;;;;;191.20;57.72;;;;;;;;;;4977672;28;20656;-43
2023/12/04 00:34:56;;;;;;;189.20;56.65;;;;;;;;;;4975286;28;20178;-43
2023/12/04 00:37:22;;;;;;;154.15;53.58;;;;;;;;;;4975212;28;20187;-43
2023/12/04 00:39:48;;;;;;;187.57;54.77;;;;;;;;;;4974784;28;20212;-44
2023/12/04 00:42:14;;;;;;;192.93;59.55;;;;;;;;;;4974884;28;20409;-43
2023/12/04 00:44:40;;;;;;;191.03;59.00;;;;;;;;;;4975392;28;20653;-43
2023/12/04 00:47:06;;;;;;;189.20;58.40;;;;;;;;;;4974999;28;20970;-43
2023/12/04 00:49:32;;;;;;;184.37;58.20;;;;;;;;;;4974681;28;20448;-43
2023/12/04 00:51:58;;;;;;;193.53;59.03;;;;;;;;;;4974847;28;20417;-43
2023/12/04 00:54:24;;;;;;;190.65;57.70;;;;;;;;;;4974907;28;20501;-43
2023/12/04 00:56:50;;;;;;;181.73;61.60;;;;;;;;;;4974697;28;20228;-44
2023/12/04 00:59:16;;;;;;;142.73;47.97;;;;;;;;;;4974426;28;20571;-44
2023/12/04 01:01:42;;;;;;;143.73;47.42;;;;;;;;;;4974616;28;20202;-44
2023/12/04 01:04:07;;;;;;;139.80;47.20;;;;;;;;;;4974711;28;20184;-44
2023/12/04 01:06:33;;;;;;;141.37;48.87;;;;;;;;;;4974657;28;20417;-43
2023/12/04 01:08:59;;;;;;;138.33;46.70;;;;;;;;;;4974223;28;20469;-43
2023/12/04 01:11:25;;;;;;;187.20;61.17;;;;;;;;;;4975200;28;20768;-42
2023/12/04 01:13:51;;;;;;;183.93;60.73;;;;;;;;;;4974654;28;20185;-43
2023/12/04 01:16:17;;;;;;;143.90;48.95;;;;;;;;;;4974481;28;20980;-43
2023/12/04 01:18:44;;;;;;;142.27;49.17;;;;;;;;;;4974073;28;20193;-43
2023/12/04 01:21:10;;;;;;;143.07;49.63;;;;;;;;;;4974221;28;20567;-43
2023/12/04 01:23:36;;;;;;;143.02;48.30;;;;;;;;;;4974412;28;20181;-44
2023/12/04 01:26:02;;;;;;;186.13;59.63;;;;;;;;;;4974094;28;20216;-43
2023/12/04 01:28:28;;;;;;;186.60;59.20;;;;;;;;;;4973982;28;20220;-43
2023/12/04 01:30:54;;;;;;;146.37;50.27;;;;;;;;;;4974301;28;20565;-43
2023/12/04 01:33:20;;;;;;;189.98;60.50;;;;;;;;;;4974164;28;20787;-43
2023/12/04 01:35:46;;;;;;;187.87;59.00;;;;;;;;;;4974043;28;20182;-43
2023/12/04 01:38:12;;;;;;;196.83;66.00;;;;;;;;;;4988702;28;20772;-43
2023/12/04 01:40:38;;;;;;;187.17;61.07;;;;;;;;;;4973875;28;20413;-42
2023/12/04 01:43:05;;;;;;;182.48;63.35;;;;;;;;;;4973179;28;20455;-43
2023/12/04 01:45:32;;;;;;;191.88;60.25;;;;;;;;;;4974011;28;20264;-43
2023/12/04 01:47:58;;;;;;;193.43;61.55;;;;;;;;;;4973818;28;20621;-43
2023/12/04 01:50:25;;;;;;;156.02;55.65;;;;;;;;;;4973701;28;20204;-43
2023/12/04 01:52:52;;;;;;;189.02;60.97;;;;;;;;;;4973770;28;20186;-43
2023/12/04 01:55:18;;;;;;;192.55;62.33;;;;;;;;;;4973685;28;20182;-43
2023/12/04 01:57:46;;;;;;;192.15;60.90;;;;;;;;;;4973719;28;20229;-43
2023/12/04 02:00:12;;;;;;;189.90;63.53;;;;;;;;;;4973269;28;20728;-43
2023/12/04 02:02:39;;;;;;;193.23;64.35;;;;;;;;;;4972896;28;20217;-43
2023/12/04 02:05:07;;;;;;;190.50;63.78;;;;;;;;;;4973020;28;20169;-43
2023/12/04 02:07:39;;;;;;;188.85;63.90;;;;;;;;;;4972418;28;20276;-44
2023/12/04 02:10:06;;;;;;;189.10;67.40;;;;;;;;;;4973028;28;20240;-43
2023/12/04 02:12:33;;;;;;;139.85;50.88;;;;;;;;;;4973458;28;20531;-43
2023/12/04 02:15:00;;;;;;;141.18;51.67;;;;;;;;;;4973236;28;20221;-43
2023/12/04 02:17:26;;;;;;;144.43;50.97;;;;;;;;;;4973455;28;20182;-43
2023/12/04 02:19:53;;;;;;;188.48;61.95;;;;;;;;;;4972864;28;20288;-43
2023/12/04 02:22:28;;;;;;;192.40;60.80;;;;;;;;;;4973090;28;20276;-43
2023/12/04 02:24:58;;;;;;;193.75;64.63;;;;;;;;;;4973216;28;20216;-43
2023/12/04 02:27:27;;;;;;;191.73;64.18;;;;;;;;;;4973338;28;20244;-44
2023/12/04 02:30:00;;;;;;;191.85;62.63;;;;;;;;;;4992486;28;20297;-43
2023/12/04 02:32:31;;;;;;;191.30;61.60;;;;;;;;;;4975391;28;20167;-43
2023/12/04 02:35:00;;;;;;;190.18;59.92;;;;;;;;;;4986989;28;20195;-43
2023/12/04 02:37:28;;;;;;;194.48;63.47;;;;;;;;;;4982310;28;20535;-43
2023/12/04 02:39:55;;;;;;;178.65;62.90;;;;;;;;;;4978777;28;20576;-43
2023/12/04 02:42:24;;;;;;;194.32;64.18;;;;;;;;;;4989980;28;20243;-43
2023/12/04 02:44:50;;;;;;;195.05;63.90;;;;;;;;;;4973189;28;20645;-43
2023/12/04 02:47:17;;;;;;;190.50;62.45;;;;;;;;;;4991591;28;20204;-43
2023/12/04 02:49:44;;;;;;;189.38;62.33;;;;;;;;;;4977418;28;20193;-44
2023/12/04 02:52:09;;;;;;;193.70;62.92;;;;;;;;;;4983719;28;20177;-43
2023/12/04 02:54:36;;;;;;;195.02;62.83;;;;;;;;;;4985529;28;20197;-43
2023/12/04 02:57:02;;;;;;;195.15;63.25;;;;;;;;;;4975527;28;20293;-44
2023/12/04 02:59:28;;;;;;;191.45;64.15;;;;;;;;;;4992056;28;20211;-43
2023/12/04 03:01:54;;;;;;;194.07;63.80;;;;;;;;;;4974058;28;20676;-43
2023/12/04 03:04:21;;;;;;;192.40;63.25;;;;;;;;;;4987385;28;20404;-43
2023/12/04 03:06:50;;;;;;;187.13;65.82;;;;;;;;;;4981800;28;20662;-43
2023/12/04 03:09:16;;;;;;;185.43;59.40;;;;;;;;;;4979239;28;20582;-43
2023/12/04 03:11:44;;;;;;;190.30;62.23;;;;;;;;;;4989172;28;20174;-43
2023/12/04 03:14:11;;;;;;;191.85;63.28;;;;;;;;;;4972839;28;20405;-43
2023/12/04 03:16:38;;;;;;;191.52;62.80;;;;;;;;;;4991506;28;20671;-43
2023/12/04 03:19:04;;;;;;;189.90;61.92;;;;;;;;;;4976986;28;20566;-43
2023/12/04 03:21:30;;;;;;;193.13;62.33;;;;;;;;;;4983316;28;20199;-43
2023/12/04 03:23:59;;;;;;;197.70;64.40;;;;;;;;;;4985260;28;20526;-44
2023/12/04 03:26:25;;;;;;;194.93;63.50;;;;;;;;;;4975606;28;20185;-44
2023/12/04 03:28:51;;;;;;;196.53;62.40;;;;;;;;;;4991801;28;20728;-43
2023/12/04 03:31:17;;;;;;;203.20;62.63;;;;;;;;;;4973509;28;20938;-43
2023/12/04 03:33:43;;;;;;;195.97;62.90;;;;;;;;;;4986919;28;20815;-43
2023/12/04 03:36:09;;;;;;;194.63;63.00;;;;;;;;;;4981421;28;20472;-43
2023/12/04 03:38:36;;;;;;;207.73;67.15;;;;;;;;;;4978024;28;20490;-43
2023/12/04 03:41:02;;;;;;;201.43;62.15;;;;;;;;;;4988273;28;20216;-44
2023/12/04 03:43:28;;;;;;;196.48;62.67;;;;;;;;;;4972699;28;20170;-43
2023/12/04 03:45:54;;;;;;;194.27;62.30;;;;;;;;;;4954300;28;20189;-44
2023/12/04 03:48:20;;;;;;;206.47;66.23;;;;;;;;;;4966858;28;20481;-43
2023/12/04 03:50:47;;;;;;;204.48;64.72;;;;;;;;;;4962148;28;20406;-44
2023/12/04 03:53:13;;;;;;;206.52;66.95;;;;;;;;;;4957008;28;20185;-44
2023/12/04 03:55:39;;;;;;;204.10;64.93;;;;;;;;;;4972189;28;20185;-43
2023/12/04 03:58:05;;;;;;;210.00;68.57;;;;;;;;;;4972032;28;20181;-43
2023/12/04 04:00:31;;;;;;;202.73;62.87;;;;;;;;;;4972246;28;20435;-43
2023/12/04 04:02:58;;;;;;;206.17;66.47;;;;;;;;;;4972803;28;20425;-44
2023/12/04 04:05:24;;;;;;;207.73;64.03;;;;;;;;;;4968112;28;20409;-44
2023/12/04 04:07:50;;;;;;;204.57;64.30;;;;;;;;;;4975651;28;20216;-44
2023/12/04 04:10:16;;;;;;;204.33;65.37;;;;;;;;;;4975578;28;20462;-43
2023/12/04 04:12:42;;;;;;;204.18;62.90;;;;;;;;;;4975529;28;20416;-43
2023/12/04 04:15:08;;;;;;;205.70;65.70;;;;;;;;;;4975670;28;20178;-43
2023/12/04 04:17:34;;;;;;;207.35;64.32;;;;;;;;;;4975550;28;20414;-44
2023/12/04 04:20:00;;;;;;;208.43;65.35;;;;;;;;;;4974973;28;20201;-44
2023/12/04 04:22:26;;;;;;;204.57;62.83;;;;;;;;;;4975445;28;20192;-43
2023/12/04 04:24:52;;;;;;;206.00;63.73;;;;;;;;;;4975607;28;20188;-43
2023/12/04 04:27:18;;;;;;;205.67;63.90;;;;;;;;;;4975337;28;21026;-44
2023/12/04 04:29:46;;;;;;;199.07;62.40;;;;;;;;;;4975120;28;20799;-43
2023/12/04 04:32:11;;;;;;;200.70;61.83;;;;;;;;;;4975206;28;20428;-43
2023/12/04 04:34:37;;;;;;;207.60;64.20;;;;;;;;;;4975151;28;20170;-44
2023/12/04 04:37:03;;;;;;;205.60;62.77;;;;;;;;;;4975168;28;20393;-44
2023/12/04 04:39:29;;;;;;;203.82;62.47;;;;;;;;;;4974988;28;20466;-44
2023/12/04 04:41:57;;;;;;;206.13;63.97;;;;;;;;;;4975087;28;20327;-42
2023/12/04 04:44:22;;;;;;;204.82;62.78;;;;;;;;;;4975242;28;20413;-43
2023/12/04 04:46:50;;;;;;;205.83;63.83;;;;;;;;;;4975020;28;20257;-43
2023/12/04 04:49:16;;;;;;;205.40;65.55;;;;;;;;;;4974947;28;20972;-43
2023/12/04 04:51:41;;;;;;;204.60;64.23;;;;;;;;;;4974873;28;20185;-43
2023/12/04 04:54:09;;;;;;;205.48;64.32;;;;;;;;;;4975043;28;20915;-43
2023/12/04 04:56:35;;;;;;;206.20;66.22;;;;;;;;;;4970877;28;20198;-43
2023/12/04 04:59:02;;;;;;;204.93;65.57;;;;;;;;;;4974414;28;20287;-43
2023/12/04 05:01:29;;;;;;;204.05;64.03;;;;;;;;;;4974657;28;20893;-43
2023/12/04 05:03:55;;;;;;;206.80;65.05;;;;;;;;;;4974598;28;20218;-43
2023/12/04 05:06:22;;;;;;;207.73;65.37;;;;;;;;;;4974928;28;20205;-43
2023/12/04 05:08:50;;;;;;;205.55;64.22;;;;;;;;;;4974276;28;20996;-43
2023/12/04 05:11:16;;;;;;;208.93;66.22;;;;;;;;;;4974558;28;20174;-43
2023/12/04 05:13:42;;;;;;;205.03;64.20;;;;;;;;;;4974588;28;20598;-43
2023/12/04 05:16:08;;;;;;;204.85;65.78;;;;;;;;;;4974372;28;20496;-43
2023/12/04 05:18:34;;;;;;;206.57;64.00;;;;;;;;;;4972702;28;20580;-44
2023/12/04 05:21:00;;;;;;;203.43;63.87;;;;;;;;;;4971892;28;20192;-44
2023/12/04 05:23:26;;;;;;;204.07;61.30;;;;;;;;;;4974618;28;20409;-44
2023/12/04 05:25:52;;;;;;;206.87;63.40;;;;;;;;;;4974386;28;20417;-43
2023/12/04 05:28:19;;;;;;;199.40;65.53;;;;;;;;;;4973954;28;20496;-43
2023/12/04 05:30:45;;;;;;;189.50;63.35;;;;;;;;;;4973947;28;20420;-43
2023/12/04 05:33:12;;;;;;;189.40;63.17;;;;;;;;;;4974311;28;20649;-43
2023/12/04 05:35:38;;;;;;;187.20;59.53;;;;;;;;;;4974186;28;20277;-43
2023/12/04 05:38:04;;;;;;;189.70;65.75;;;;;;;;;;4974054;28;20186;-43
2023/12/04 05:40:30;;;;;;;188.50;61.63;;;;;;;;;;4973976;28;20205;-44
2023/12/04 05:42:56;;;;;;;192.80;63.97;;;;;;;;;;4974018;28;20428;-44
2023/12/04 05:45:22;;;;;;;190.97;62.60;;;;;;;;;;4973853;28;20496;-43
2023/12/04 05:47:48;;;;;;;193.27;64.43;;;;;;;;;;4973791;28;20523;-44
2023/12/04 05:50:14;;;;;;;193.77;62.63;;;;;;;;;;4973572;28;20432;-44
2023/12/04 05:52:41;;;;;;;197.17;65.43;;;;;;;;;;4973962;28;20415;-44
2023/12/04 05:55:07;;;;;;;194.27;63.15;;;;;;;;;;4990868;28;20412;-43
2023/12/04 05:57:33;;;;;;;194.57;62.70;;;;;;;;;;4980289;28;20228;-43
2023/12/04 06:00:00;;;;;;;198.93;66.90;;;;;;;;;;4982004;28;20197;-43
2023/12/04 06:02:29;;;;;;;196.80;62.65;;;;;;;;;;4988139;28;20417;-43
2023/12/04 06:04:55;;;;;;;198.50;65.40;;;;;;;;;;4974779;28;20168;-43
2023/12/04 06:07:23;;;;;;;195.40;62.57;;;;;;;;;;4993097;28;20201;-44
2023/12/04 06:09:48;;;;;;;196.10;64.10;;;;;;;;;;4975678;28;20468;-43
2023/12/04 06:12:14;;;;;;;195.90;63.57;;;;;;;;;;4986585;28;20201;-43
2023/12/04 06:14:40;;;;;;;197.73;66.00;;;;;;;;;;4983751;28;20409;-43
2023/12/04 06:17:06;;;;;;;196.50;65.57;;;;;;;;;;4978337;28;20412;-43
2023/12/04 06:19:32;;;;;;;194.17;62.20;;;;;;;;;;4991488;28;20423;-43
2023/12/04 06:21:58;;;;;;;197.43;64.88;;;;;;;;;;4974109;28;20421;-44
2023/12/04 06:24:25;;;;;;;199.47;65.07;;;;;;;;;;4988704;28;20188;-43
2023/12/04 06:26:52;;;;;;;198.63;65.95;;;;;;;;;;4979464;28;20413;-43
2023/12/04 06:29:19;;;;;;;208.40;73.28;;;;;;;;;;4977111;28;20232;-43
2023/12/04 06:31:45;;;;;;;197.63;66.75;;;;;;;;;;4971743;28;20173;-43
2023/12/04 06:34:11;;;;;;;201.40;66.70;;;;;;;;;;4972460;28;20236;-42
2023/12/04 06:36:40;;;;;;;200.70;64.82;;;;;;;;;;4972320;28;20182;-43
2023/12/04 06:39:10;;;;;;;198.95;63.95;;;;;;;;;;4964356;28;20193;-43
2023/12/04 06:41:36;;;;;;;198.82;61.72;;;;;;;;;;4974821;28;20173;-43
2023/12/04 06:44:02;;;;;;;202.02;66.57;;;;;;;;;;4972129;28;20188;-43
2023/12/04 06:46:32;;;;;;;202.30;64.70;;;;;;;;;;4972107;28;20196;-43
2023/12/04 06:48:59;;;;;;;198.95;62.92;;;;;;;;;;4971792;28;20252;-43
2023/12/04 06:51:27;;;;;;;200.23;62.20;;;;;;;;;;4972997;28;20263;-43
2023/12/04 06:53:53;;;;;;;200.10;62.55;;;;;;;;;;4972893;28;20186;-43
2023/12/04 06:56:19;;;;;;;201.18;63.53;;;;;;;;;;4972884;28;20257;-43
2023/12/04 06:58:45;;;;;;;199.50;61.43;;;;;;;;;;4972381;28;20204;-43
2023/12/04 07:01:11;;;;;;;201.37;64.60;;;;;;;;;;4972086;28;20449;-43
2023/12/04 07:03:37;;;;;;;198.20;62.10;;;;;;;;;;4972244;28;20422;-44
2023/12/04 07:06:04;;;;;;;201.13;63.63;;;;;;;;;;4975671;28;20416;-43
2023/12/04 07:08:30;;;;;;;203.18;66.00;;;;;;;;;;4991158;28;20221;-43
2023/12/04 07:10:56;;;;;;;207.15;69.45;;;;;;;;;;4970687;28;20666;-43
2023/12/04 07:13:22;;;;;;;200.27;62.75;;;;;;;;;;4974759;28;20204;-43
2023/12/04 07:15:48;;;;;;;196.77;61.10;;;;;;;;;;4972245;28;20217;-43
2023/12/04 07:18:14;;;;;;;201.90;66.57;;;;;;;;;;4972291;28;20416;-43
2023/12/04 07:20:40;;;;;;;199.68;64.93;;;;;;;;;;4972630;28;20420;-43
2023/12/04 07:23:06;;;;;;;197.90;62.10;;;;;;;;;;4972477;28;20197;-42
2023/12/04 07:25:32;;;;;;;199.70;62.80;;;;;;;;;;4972477;28;20415;-43
2023/12/04 07:27:58;;;;;;;199.57;62.80;;;;;;;;;;4972456;28;20509;-43
2023/12/04 07:30:24;;;;;;;200.45;63.72;;;;;;;;;;4972408;28;20437;-43
2023/12/04 07:32:50;;;;;;;201.43;62.78;;;;;;;;;;4972551;28;20173;-43
2023/12/04 07:35:18;;;;;;;200.13;62.70;;;;;;;;;;4972479;28;20232;-42
2023/12/04 07:37:44;;;;;;;199.05;62.05;;;;;;;;;;4972400;28;20188;-43
2023/12/04 07:40:10;;;;;;;199.75;62.63;;;;;;;;;;4973314;28;20747;-44
2023/12/04 07:42:38;;;;;;;200.85;62.95;;;;;;;;;;4976181;28;20264;-43
2023/12/04 07:45:04;;;;;;;199.13;61.33;;;;;;;;;;4976188;28;20177;-43
2023/12/04 07:47:30;;;;;;;201.30;64.20;;;;;;;;;;4976168;28;20223;-43
2023/12/04 07:49:56;;;;;;;203.67;66.00;;;;;;;;;;4975760;28;20224;-43
2023/12/04 07:52:22;;;;;;;199.13;63.13;;;;;;;;;;4976072;28;20500;-43
2023/12/04 07:54:49;;;;;;;200.37;64.70;;;;;;;;;;4975871;28;20420;-43
2023/12/04 07:57:16;;;;;;;203.43;65.47;;;;;;;;;;4976119;28;20409;-43
2023/12/04 07:59:42;;;;;;;203.18;63.63;;;;;;;;;;4975690;28;20194;-43
2023/12/04 08:02:08;;;;;;;204.50;63.80;;;;;;;;;;4975875;28;20178;-43
2023/12/04 08:04:34;;;;;;;203.13;65.50;;;;;;;;;;4975784;28;20252;-43
2023/12/04 08:07:00;;;;;;;202.13;64.87;;;;;;;;;;4975710;28;20308;-43
2023/12/04 08:09:26;;;;;;;202.27;64.00;;;;;;;;;;4975289;28;20475;-43
2023/12/04 08:11:52;;;;;;;202.93;65.47;;;;;;;;;;4975741;28;20757;-43
2023/12/04 08:14:18;;;;;;;203.85;65.47;;;;;;;;;;4975658;28;20865;-43
2023/12/04 08:16:44;;;;;;;203.02;62.97;;;;;;;;;;4975602;28;20720;-43
2023/12/04 08:19:10;;;;;;;202.43;63.37;;;;;;;;;;4975261;28;20201;-43
2023/12/04 08:21:36;;;;;;;206.55;66.20;;;;;;;;;;4975373;28;20436;-44
2023/12/04 08:24:02;;;;;;;204.43;65.43;;;;;;;;;;4975390;28;20561;-43
2023/12/04 08:26:29;;;;;;;204.45;64.55;;;;;;;;;;4975413;28;20413;-43
2023/12/04 08:28:56;;;;;;;203.90;65.97;;;;;;;;;;4974687;28;20263;-43
2023/12/04 08:31:23;;;;;;;204.77;66.60;;;;;;;;;;4975435;28;20174;-43
2023/12/04 08:33:49;;;;;;;204.60;65.80;;;;;;;;;;4993696;28;20186;-43
2023/12/04 08:36:15;;;;;;;204.47;65.60;;;;;;;;;;4980541;28;20534;-43
2023/12/04 08:38:41;;;;;;;206.18;64.07;;;;;;;;;;4984874;28;20428;-43
2023/12/04 08:41:08;;;;;;;204.63;64.88;;;;;;;;;;4988397;28;20181;-43
2023/12/04 08:43:34;;;;;;;206.50;67.32;;;;;;;;;;4977128;28;20197;-43
2023/12/04 08:46:00;;;;;;;206.05;65.85;;;;;;;;;;4994734;28;20173;-44
2023/12/04 08:48:26;;;;;;;206.27;65.57;;;;;;;;;;4976368;28;20251;-43
2023/12/04 08:50:52;;;;;;;204.85;63.88;;;;;;;;;;4974928;28;20185;-43
2023/12/04 08:53:18;;;;;;;204.43;64.80;;;;;;;;;;4965201;28;20182;-44
2023/12/04 08:55:44;;;;;;;206.10;63.20;;;;;;;;;;4961229;28;20413;-43
2023/12/04 08:58:11;;;;;;;210.95;71.05;;;;;;;;;;4972886;28;20180;-43
2023/12/04 09:00:37;;;;;;;206.85;66.55;;;;;;;;;;4955659;28;20166;-43
2023/12/04 09:03:03;;;;;;;209.57;71.45;;;;;;;;;;4972977;28;20173;-42
2023/12/04 09:05:30;;;;;;;208.70;71.35;;;;;;;;;;4961434;28;20187;-43
2023/12/04 09:07:56;;;;;;;208.38;70.13;;;;;;;;;;4964750;28;20600;-43
2023/12/04 09:10:22;;;;;;;206.00;67.73;;;;;;;;;;4970740;28;20205;-43
2023/12/04 09:12:48;;;;;;;209.80;71.43;;;;;;;;;;4974713;28;20414;-44
2023/12/04 09:15:14;;;;;;;203.60;63.40;;;;;;;;;;4974820;28;20799;-43
2023/12/04 09:17:40;;;;;;;208.97;69.77;;;;;;;;;;4974452;28;20422;-44
2023/12/04 09:20:08;;;;;;;210.68;69.40;;;;;;;;;;4973285;28;20966;-43
2023/12/04 09:22:37;;;;;;;211.57;67.75;;;;;;;;;;4974054;28;20192;-43
2023/12/04 09:25:04;;;;;;;213.50;69.05;;;;;;;;;;4974208;28;20254;-43
2023/12/04 09:27:30;;;;;;;209.70;65.88;;;;;;;;;;4974032;28;20205;-43
2023/12/04 09:29:57;;;;;;;215.43;73.03;;;;;;;;;;4973791;28;20205;-43
2023/12/04 09:32:24;;;;;;;213.98;69.68;;;;;;;;;;4974067;28;20178;-43
2023/12/04 09:34:50;;;;;;;213.35;67.30;;;;;;;;;;4973954;28;20260;-43
2023/12/04 09:37:16;;;;;;;209.73;61.90;;;;;;;;;;4973829;28;20205;-43
2023/12/04 09:39:42;;;;;;;218.50;74.17;;;;;;;;;;4989207;28;20432;-43
2023/12/04 09:42:08;;;;;;;220.95;74.88;;;;;;;;;;4979740;28;20410;-44
2023/12/04 09:44:37;;;;;;;220.57;74.85;;;;;;;;;;4971725;28;20178;-44
2023/12/04 09:47:06;;;;;;;213.05;68.40;;;;;;;;;;4973553;28;20236;-44
2023/12/04 09:49:32;;;;;;;212.65;65.53;;;;;;;;;;4971284;28;20218;-43
2023/12/04 09:51:59;;;;;;;214.23;67.85;;;;;;;;;;4972897;28;20235;-43
2023/12/04 09:54:26;;;;;;;213.57;67.32;;;;;;;;;;4972414;28;20189;-43
2023/12/04 09:56:52;;;;;;;214.40;68.90;;;;;;;;;;4971705;28;20181;-44
2023/12/04 09:59:18;;;;;;;215.65;68.75;;;;;;;;;;4973127;28;20194;-43
2023/12/04 10:01:47;;;;;;;214.52;69.25;;;;;;;;;;4973259;28;20174;-44
2023/12/04 10:04:13;;;;;;;213.77;66.18;;;;;;;;;;4972677;28;20182;-43
2023/12/04 10:06:39;;;;;;;212.73;67.47;;;;;;;;;;4979120;28;20641;-44
2023/12/04 10:09:11;;;;;;;218.50;71.60;;;;;;;;;;4991054;28;20276;-44
2023/12/04 10:11:47;;;;;;;215.77;70.07;;;;;;;;;;4973305;28;20423;-44
2023/12/04 10:14:15;;;;;;;212.02;64.72;;;;;;;;;;4992768;28;20629;-43
2023/12/04 10:16:41;;;;;;;221.02;72.97;;;;;;;;;;4977128;28;20174;-43
2023/12/04 10:19:27;;;;;;;214.85;66.97;;;;;;;;;;4984624;28;20280;-44
2023/12/04 10:21:54;;;;;;;212.98;65.30;;;;;;;;;;4982621;28;20189;-43
2023/12/04 10:24:35;;;;;;;214.00;66.30;;;;;;;;;;4979641;28;20200;-44
2023/12/04 10:27:01;;;;;;;210.68;64.75;;;;;;;;;;4988487;28;20173;-43
2023/12/04 10:29:29;;;;;;;203.40;65.53;;;;;;;;;;4973207;28;20205;-43
2023/12/04 10:31:55;;;;;;;203.55;66.63;;;;;;;;;;4992820;28;20165;-44
2023/12/04 10:34:25;;;;;;;215.23;66.90;;;;;;;;;;4976583;28;20268;-43
2023/12/04 10:36:51;;;;;;;213.73;65.97;;;;;;;;;;4985864;28;20377;-44
2023/12/04 10:39:17;;;;;;;209.02;67.53;;;;;;;;;;4983615;28;20252;-43
2023/12/04 10:41:59;;;;;;;213.40;65.53;;;;;;;;;;4977505;28;20260;-43
2023/12/04 10:44:25;;;;;;;214.05;65.95;;;;;;;;;;4990215;28;20263;-44
2023/12/04 10:46:52;;;;;;;212.93;65.37;;;;;;;;;;4973331;28;20276;-44
2023/12/04 10:49:18;;;;;;;215.70;68.60;;;;;;;;;;4990870;28;20554;-43
2023/12/04 10:51:44;;;;;;;214.02;66.50;;;;;;;;;;4978052;28;20174;-43
2023/12/04 10:54:12;;;;;;;215.00;68.47;;;;;;;;;;4973160;28;20209;-43
2023/12/04 10:56:39;;;;;;;212.88;66.90;;;;;;;;;;4966680;28;20256;-43
2023/12/04 10:59:10;;;;;;;213.43;66.78;;;;;;;;;;4955859;28;20210;-43
2023/12/04 11:01:37;;;;;;;212.85;66.20;;;;;;;;;;4973033;28;20595;-44
2023/12/04 11:04:06;;;;;;;212.85;65.97;;;;;;;;;;4954062;28;20261;-43
2023/12/04 11:06:33;;;;;;;215.00;70.00;;;;;;;;;;4968762;28;20196;-44
2023/12/04 11:09:00;;;;;;;214.27;65.60;;;;;;;;;;4961093;28;20202;-43
2023/12/04 11:11:32;;;;;;;212.07;66.45;;;;;;;;;;4960962;28;20289;-44
2023/12/04 11:14:01;;;;;;;210.90;67.18;;;;;;;;;;4969478;28;20200;-43
2023/12/04 11:16:35;;;;;;;209.80;66.70;;;;;;;;;;4975665;28;20166;-43
2023/12/04 11:19:22;;;;;;;209.50;67.93;;;;;;;;;;4976889;28;20184;-43
2023/12/04 11:21:51;;;;;;;207.57;64.82;;;;;;;;;;4957447;28;20573;-44
2023/12/04 11:24:18;;;;;;;211.32;68.18;;;;;;;;;;4972440;28;20178;-43
2023/12/04 11:26:45;;;;;;;211.20;68.22;;;;;;;;;;4963916;28;20201;-44
2023/12/04 11:29:13;;;;;;;208.93;64.68;;;;;;;;;;4965364;28;20303;-43
2023/12/04 11:31:40;;;;;;;208.98;66.40;;;;;;;;;;4971486;28;20174;-44
2023/12/04 11:34:09;;;;;;;209.10;66.53;;;;;;;;;;4958471;28;20167;-43
2023/12/04 11:36:38;;;;;;;208.70;66.78;;;;;;;;;;4976527;28;20630;-44
2023/12/04 11:39:05;;;;;;;207.55;65.35;;;;;;;;;;4958660;28;20202;-43
2023/12/04 11:41:31;;;;;;;207.77;65.82;;;;;;;;;;4970266;28;20265;-43
2023/12/04 11:43:59;;;;;;;207.68;65.82;;;;;;;;;;4966798;28;20201;-44
2023/12/04 11:46:26;;;;;;;209.35;67.15;;;;;;;;;;4962626;28;20239;-43
2023/12/04 11:48:58;;;;;;;212.40;68.82;;;;;;;;;;4973881;28;20228;-43
2023/12/04 11:51:56;;;;;;;205.70;67.63;;;;;;;;;;4956832;29;20246;-43
2023/12/04 11:54:25;;;;;;;196.85;62.85;;;;;;;;;;4924654;28;20603;-43
2023/12/04 11:56:59;;;;;;;199.27;64.80;;;;;;;;;;4975573;28;20197;-44
2023/12/04 11:59:25;;;;;;;198.48;63.85;;;;;;;;;;4959787;28;20201;-43
2023/12/04 12:01:57;;;;;;;200.27;64.93;;;;;;;;;;4968540;28;20181;-43
2023/12/04 12:04:23;;;;;;;201.00;63.70;;;;;;;;;;4967041;28;20208;-43
2023/12/04 12:06:50;;;;;;;199.38;61.78;;;;;;;;;;4961182;28;20193;-43
2023/12/04 12:09:16;;;;;;;202.82;62.78;;;;;;;;;;4974572;28;20224;-43
2023/12/04 12:11:44;;;;;;;202.90;63.92;;;;;;;;;;4956536;29;20166;-43
2023/12/04 12:14:11;;;;;;;201.82;64.00;;;;;;;;;;4972798;28;20185;-43
2023/12/04 12:16:37;;;;;;;201.50;63.28;;;;;;;;;;4975268;28;20178;-42
2023/12/04 12:19:03;;;;;;;201.27;63.07;;;;;;;;;;4966395;28;20205;-43
2023/12/04 12:21:29;;;;;;;195.87;62.90;;;;;;;;;;4960788;28;20440;-43
2023/12/04 12:23:55;;;;;;;200.02;62.75;;;;;;;;;;4975695;28;20770;-43
2023/12/04 12:26:21;;;;;;;202.05;64.95;;;;;;;;;;4957850;28;20264;-43
2023/12/04 12:28:47;;;;;;;202.00;64.20;;;;;;;;;;4972581;28;20297;-43
2023/12/04 12:31:13;;;;;;;202.07;62.97;;;;;;;;;;4974793;28;20416;-43
2023/12/04 12:33:40;;;;;;;198.00;64.67;;;;;;;;;;4966764;28;20179;-43
2023/12/04 12:36:06;;;;;;;200.52;65.45;;;;;;;;;;4960153;28;20416;-42
2023/12/04 12:38:36;;;;;;;201.73;65.88;;;;;;;;;;4974423;28;20775;-43
2023/12/04 12:41:07;;;;;;;207.32;63.22;;;;;;;;;;4956068;28;20170;-43
2023/12/04 12:43:33;;;;;;;207.30;64.43;;;;;;;;;;4972705;28;20257;-43
2023/12/04 12:46:00;;;;;;;205.73;64.20;;;;;;;;;;4961989;28;20252;-43
2023/12/04 12:48:27;;;;;;;209.93;64.80;;;;;;;;;;4964260;28;20573;-43
2023/12/04 12:50:55;;;;;;;207.48;64.60;;;;;;;;;;4969619;28;20201;-43
2023/12/04 12:53:34;;;;;;;209.70;66.05;;;;;;;;;;4957110;28;20179;-44
2023/12/04 12:56:05;;;;;;;208.82;64.57;;;;;;;;;;4975064;28;20172;-43
2023/12/04 12:58:32;;;;;;;207.90;63.67;;;;;;;;;;4955298;28;20680;-43
2023/12/04 13:00:58;;;;;;;207.23;63.10;;;;;;;;;;4970787;28;20180;-44
2023/12/04 13:03:24;;;;;;;207.23;65.95;;;;;;;;;;4963207;28;20249;-43
2023/12/04 13:05:50;;;;;;;208.57;64.07;;;;;;;;;;4962677;28;20180;-43
2023/12/04 13:08:16;;;;;;;213.10;66.30;;;;;;;;;;4970749;28;20544;-43
2023/12/04 13:10:42;;;;;;;206.45;58.40;;;;;;;;;;4962565;28;20401;-43
2023/12/04 13:13:11;;;;;;;209.38;62.38;;;;;;;;;;4973923;28;20182;-43
2023/12/04 13:15:37;;;;;;;206.57;60.38;;;;;;;;;;4973895;28;20181;-43
2023/12/04 13:18:04;;;;;;;208.83;61.00;;;;;;;;;;4973793;28;20177;-43
2023/12/04 13:20:30;;;;;;;206.38;57.75;;;;;;;;;;4966630;28;20429;-43
2023/12/04 13:22:56;;;;;;;210.77;60.67;;;;;;;;;;4958467;28;20662;-43
2023/12/04 13:25:22;;;;;;;206.50;57.80;;;;;;;;;;4974469;28;20956;-43
2023/12/04 13:27:49;;;;;;;210.65;61.17;;;;;;;;;;4954962;28;20804;-43
2023/12/04 13:30:16;;;;;;;208.63;59.80;;;;;;;;;;4969605;28;20204;-44
2023/12/04 13:32:44;;;;;;;206.65;58.00;;;;;;;;;;4962964;28;20257;-43
2023/12/04 13:35:11;;;;;;;202.23;56.30;;;;;;;;;;4961561;28;20174;-43
2023/12/04 13:37:38;;;;;;;205.80;58.42;;;;;;;;;;4969362;28;20182;-43
2023/12/04 13:40:15;;;;;;;206.15;59.45;;;;;;;;;;4954552;28;20198;-43
2023/12/04 13:45:26;;;;;;;206.25;59.78;;;;;;;;;;4955087;28;20192;-43
2023/12/04 13:47:53;;;;;;;203.83;58.67;;;;;;;;;;4969417;28;20205;-43
2023/12/04 13:50:19;;;;;;;206.40;58.72;;;;;;;;;;4962264;28;20881;-43
2023/12/04 13:52:48;;;;;;;207.43;59.45;;;;;;;;;;4961694;28;20680;-43
2023/12/04 13:55:36;;;;;;;207.77;59.55;;;;;;;;;;4969936;28;20171;-43
2023/12/04 14:00:28;;;;;;;206.77;58.40;;;;;;;;;;4973789;28;20363;-44
2023/12/04 14:02:59;;;;;;;205.67;58.33;;;;;;;;;;4955500;28;20190;-43
2023/12/04 14:05:26;;;;;;;207.38;59.63;;;;;;;;;;4969409;28;20491;-44
2023/12/04 14:07:52;;;;;;;205.85;59.38;;;;;;;;;;4962408;28;20219;-43